Time;durP1;ratioP1;P1;durP2;ratioP2;P2;SDS_P1;SDS_P2;PMS_P1;PMS_P2;Temp;Humidity;BMP_temperature;BMP_pressure;BME280_temperature;BME280_humidity;BME280_pressure;Samples;Min_cycle;Max_cycle;Signal;HPM_P1;HPM_P2
2022/05/28 00:02:29;;;;;;;8.80;3.57;;;16.30;91.90;;;;;;6182397;23;20410;-85
2022/05/28 00:04:57;;;;;;;8.40;3.80;;;16.30;92.90;;;;;;6178385;23;20655;-85
2022/05/28 00:07:24;;;;;;;8.13;4.37;;;16.30;93.20;;;;;;6167349;23;20985;-85
2022/05/28 00:09:51;;;;;;;5.00;3.60;;;16.30;94.00;;;;;;6161361;23;20929;-85
2022/05/28 00:12:17;;;;;;;8.07;4.40;;;16.20;93.40;;;;;;6162808;23;20418;-86
2022/05/28 00:14:44;;;;;;;8.53;4.20;;;16.10;93.60;;;;;;6174017;23;20391;-86
2022/05/28 00:17:10;;;;;;;6.13;4.00;;;16.00;94.20;;;;;;6169963;23;20435;-85
2022/05/28 00:19:37;;;;;;;12.27;3.77;;;16.00;94.80;;;;;;6163345;23;20462;-85
2022/05/28 00:22:06;;;;;;;9.03;4.70;;;16.00;95.30;;;;;;6160533;23;20404;-85
2022/05/28 00:24:32;;;;;;;4.90;4.40;;;16.00;96.20;;;;;;6169993;23;20471;-85
2022/05/28 00:26:59;;;;;;;7.40;4.00;;;16.00;96.90;;;;;;6172778;23;20467;-85
2022/05/28 00:29:26;;;;;;;5.33;4.23;;;16.00;96.70;;;;;;6165006;23;20419;-85
2022/05/28 00:31:53;;;;;;;5.20;3.43;;;16.00;96.40;;;;;;6166121;23;20422;-86
2022/05/28 00:34:20;;;;;;;9.23;4.80;;;15.90;96.40;;;;;;6163945;23;20438;-85
2022/05/28 00:36:46;;;;;;;6.93;4.40;;;15.90;97.30;;;;;;6165953;23;20401;-85
2022/05/28 00:39:14;;;;;;;8.83;4.30;;;15.70;98.70;;;;;;6162719;23;20430;-86
2022/05/28 00:41:41;;;;;;;7.37;4.60;;;15.60;99.30;;;;;;6162739;23;20442;-86
2022/05/28 00:44:09;;;;;;;5.93;4.20;;;15.50;99.90;;;;;;6162245;23;20742;-86
2022/05/28 00:46:37;;;;;;;8.80;4.27;;;15.40;99.80;;;;;;6162526;23;20419;-86
2022/05/28 00:49:07;;;;;;;12.33;5.17;;;15.30;99.90;;;;;;6161806;23;20426;-86
2022/05/28 00:51:40;;;;;;;9.63;4.83;;;15.20;99.90;;;;;;6160056;23;20388;-86
2022/05/28 00:54:08;;;;;;;6.73;5.17;;;15.10;99.90;;;;;;6163061;23;20391;-85
2022/05/28 00:56:37;;;;;;;8.23;5.30;;;15.00;99.90;;;;;;6172257;23;20422;-85
2022/05/28 00:59:04;;;;;;;10.50;5.47;;;15.00;99.90;;;;;;6175877;23;20438;-85
2022/05/28 01:01:34;;;;;;;5.70;4.30;;;15.10;99.90;;;;;;6171266;23;20427;-86
2022/05/28 01:04:10;;;;;;;8.20;4.80;;;15.00;99.90;;;;;;6169923;23;20387;-86
2022/05/28 01:06:45;;;;;;;5.70;4.20;;;15.10;99.90;;;;;;6183009;23;20599;-87
2022/05/28 01:09:17;;;;;;;7.90;4.20;;;15.00;99.90;;;;;;6167048;23;20433;-85
2022/05/28 01:11:50;;;;;;;8.07;4.50;;;15.00;99.90;;;;;;6160803;23;20379;-85
2022/05/28 01:14:22;;;;;;;8.90;4.70;;;15.00;99.90;;;;;;6175686;23;20387;-85
2022/05/28 01:16:52;;;;;;;6.73;4.20;;;15.10;99.90;;;;;;6172742;23;20395;-85
2022/05/28 01:19:33;;;;;;;10.20;4.97;;;15.10;99.90;;;;;;6161357;23;20941;-86
2022/05/28 01:22:07;;;;;;;6.83;4.20;;;15.10;99.70;;;;;;6162611;23;20434;-85
2022/05/28 01:24:47;;;;;;;6.50;3.90;;;15.20;99.20;;;;;;6162372;23;20394;-85
2022/05/28 01:27:19;;;;;;;9.63;4.00;;;15.20;99.80;;;;;;6170265;23;20387;-85
2022/05/28 01:29:48;;;;;;;6.90;4.60;;;15.20;99.00;;;;;;6167713;23;20423;-85
2022/05/28 01:32:17;;;;;;;6.77;4.50;;;15.10;98.50;;;;;;6162073;23;20399;-85
2022/05/28 01:34:44;;;;;;;11.07;5.00;;;15.10;98.50;;;;;;6161883;23;20743;-85
2022/05/28 01:37:12;;;;;;;6.73;4.17;;;15.20;98.10;;;;;;6161295;23;20416;-86
2022/05/28 01:39:42;;;;;;;9.50;4.10;;;15.20;97.50;;;;;;6161064;23;20487;-85
2022/05/28 01:42:11;;;;;;;10.47;5.87;;;15.20;97.20;;;;;;6161561;23;20427;-86
2022/05/28 01:44:42;;;;;;;13.97;5.47;;;15.20;97.30;;;;;;6161269;23;20897;-85
2022/05/28 01:47:10;;;;;;;7.93;3.93;;;15.20;96.40;;;;;;6161095;23;20402;-86
2022/05/28 01:49:38;;;;;;;7.30;3.60;;;15.20;96.70;;;;;;6160529;23;20438;-84
2022/05/28 01:52:06;;;;;;;9.90;3.80;;;15.10;97.00;;;;;;6160657;23;20402;-85
2022/05/28 01:54:37;;;;;;;8.93;4.67;;;15.10;96.80;;;;;;6173001;23;20411;-85
2022/05/28 01:57:04;;;;;;;9.23;3.97;;;15.10;96.40;;;;;;6167689;23;20395;-86
2022/05/28 01:59:36;;;;;;;9.43;4.40;;;15.10;95.20;;;;;;6161553;23;20441;-85
2022/05/28 02:02:06;;;;;;;8.20;4.07;;;15.00;94.20;;;;;;6162372;23;20430;-85
2022/05/28 02:04:35;;;;;;;8.57;3.70;;;15.00;93.90;;;;;;6162705;23;20410;-86
2022/05/28 02:07:03;;;;;;;5.23;3.37;;;14.90;93.80;;;;;;6161018;23;20406;-85
2022/05/28 02:09:34;;;;;;;6.40;3.70;;;14.90;93.40;;;;;;6160044;23;20437;-85
2022/05/28 02:12:12;;;;;;;8.20;4.07;;;14.90;93.60;;;;;;6160755;23;20391;-86
2022/05/28 02:14:57;;;;;;;7.53;3.80;;;14.90;93.20;;;;;;6161474;23;20387;-85
2022/05/28 02:17:32;;;;;;;7.83;3.00;;;14.80;92.40;;;;;;6167385;23;20395;-85
2022/05/28 02:20:07;;;;;;;7.80;3.47;;;14.80;91.70;;;;;;6181703;23;20406;-85
2022/05/28 02:22:40;;;;;;;5.60;3.37;;;14.70;90.70;;;;;;6172236;23;20434;-85
2022/05/28 02:25:10;;;;;;;8.27;3.80;;;14.70;90.60;;;;;;6162730;23;20388;-85
2022/05/28 02:27:39;;;;;;;9.90;3.60;;;14.60;90.20;;;;;;6163488;23;20413;-86
2022/05/28 02:30:07;;;;;;;8.37;3.27;;;14.60;89.80;;;;;;6162765;23;20423;-86
2022/05/28 02:32:36;;;;;;;11.43;3.70;;;14.60;89.20;;;;;;6162431;23;20414;-85
2022/05/28 02:35:02;;;;;;;8.63;3.00;;;14.50;88.20;;;;;;6161631;23;20420;-86
2022/05/28 02:37:29;;;;;;;8.07;2.80;;;14.50;88.40;;;;;;6161174;23;20752;-86
2022/05/28 02:39:57;;;;;;;8.27;3.23;;;14.30;88.80;;;;;;6161416;23;20429;-86
2022/05/28 02:42:24;;;;;;;10.60;4.30;;;14.40;89.40;;;;;;6169172;23;20442;-86
2022/05/28 02:44:51;;;;;;;8.93;3.40;;;14.30;89.70;;;;;;6173502;23;20995;-85
2022/05/28 02:47:18;;;;;;;8.73;3.47;;;14.30;89.20;;;;;;6169570;23;20415;-86
2022/05/28 02:49:46;;;;;;;9.90;2.97;;;14.20;89.70;;;;;;6163311;23;20809;-85
2022/05/28 02:52:12;;;;;;;10.40;2.87;;;14.20;89.40;;;;;;6161227;23;20473;-86
2022/05/28 02:54:39;;;;;;;7.70;3.60;;;14.10;89.70;;;;;;6161635;23;20806;-86
2022/05/28 02:57:06;;;;;;;6.37;3.00;;;14.00;89.90;;;;;;6162868;23;20407;-85
2022/05/28 02:59:33;;;;;;;3.87;2.00;;;14.00;89.20;;;;;;6165245;23;20440;-85
2022/05/28 03:02:00;;;;;;;5.20;2.70;;;14.00;89.00;;;;;;6182654;23;20458;-86
2022/05/28 03:04:27;;;;;;;9.97;2.47;;;13.90;87.80;;;;;;6179674;23;20401;-84
2022/05/28 03:06:55;;;;;;;9.27;3.77;;;13.80;88.00;;;;;;6180696;23;20402;-85
2022/05/28 03:09:22;;;;;;;9.73;3.00;;;13.70;88.00;;;;;;6162600;23;20425;-86
2022/05/28 03:11:49;;;;;;;9.33;3.17;;;13.70;88.00;;;;;;6161007;23;20416;-85
2022/05/28 03:14:17;;;;;;;6.47;2.80;;;13.60;88.10;;;;;;6160251;23;20407;-84
2022/05/28 03:16:44;;;;;;;10.73;2.97;;;13.60;88.20;;;;;;6161109;23;20420;-85
2022/05/28 03:19:10;;;;;;;7.90;2.50;;;13.50;87.70;;;;;;6162909;23;20760;-84
2022/05/28 03:21:37;;;;;;;6.30;2.60;;;13.50;88.30;;;;;;6162868;23;20441;-86
2022/05/28 03:24:07;;;;;;;9.83;2.90;;;13.40;88.00;;;;;;6163865;23;20905;-85
2022/05/28 03:26:34;;;;;;;9.80;3.43;;;13.50;87.70;;;;;;6163368;23;20713;-85
2022/05/28 03:29:00;;;;;;;7.03;2.63;;;13.50;88.30;;;;;;6163756;23;20933;-85
2022/05/28 03:31:28;;;;;;;5.20;3.17;;;13.50;88.00;;;;;;6163881;23;20405;-85
2022/05/28 03:33:56;;;;;;;7.83;4.67;;;13.40;87.30;;;;;;6164349;23;20390;-86
2022/05/28 03:36:24;;;;;;;4.30;2.37;;;13.40;87.30;;;;;;6163756;23;20411;-85
2022/05/28 03:38:51;;;;;;;11.80;3.13;;;13.40;88.50;;;;;;6163708;23;20431;-85
2022/05/28 03:41:19;;;;;;;7.20;2.63;;;13.40;87.70;;;;;;6163477;23;20470;-85
2022/05/28 03:43:47;;;;;;;6.07;2.60;;;13.30;87.40;;;;;;6162885;23;20458;-86
2022/05/28 03:46:22;;;;;;;8.47;2.93;;;13.10;87.60;;;;;;6173153;23;20442;-86
2022/05/28 03:48:49;;;;;;;9.30;2.80;;;13.10;88.30;;;;;;6184208;23;20439;-86
2022/05/28 03:51:15;;;;;;;7.70;3.07;;;13.20;88.00;;;;;;6182938;23;20412;-84
2022/05/28 03:53:42;;;;;;;7.43;2.80;;;13.10;88.00;;;;;;6182954;23;20400;-85
2022/05/28 03:56:09;;;;;;;10.00;3.70;;;13.00;88.10;;;;;;6181635;23;20405;-85
2022/05/28 03:58:37;;;;;;;8.57;3.10;;;13.00;87.50;;;;;;6166406;23;20419;-86
2022/05/28 04:01:04;;;;;;;5.17;2.50;;;13.00;87.40;;;;;;6158467;23;20432;-85
2022/05/28 04:03:31;;;;;;;6.13;2.43;;;13.10;87.70;;;;;;6158223;23;20419;-83
2022/05/28 04:05:58;;;;;;;7.70;2.83;;;13.00;87.10;;;;;;6158918;23;20380;-83
2022/05/28 04:08:25;;;;;;;10.30;3.57;;;13.00;86.30;;;;;;6157764;23;20407;-83
2022/05/28 04:10:52;;;;;;;6.57;2.60;;;13.00;86.50;;;;;;6159039;23;20444;-83
2022/05/28 04:13:18;;;;;;;6.13;2.00;;;13.00;85.90;;;;;;6157819;23;20408;-83
2022/05/28 04:15:49;;;;;;;6.80;2.70;;;13.00;85.10;;;;;;6158719;23;20447;-83
2022/05/28 04:18:16;;;;;;;8.63;3.50;;;12.80;84.80;;;;;;6157966;23;20449;-83
2022/05/28 04:20:43;;;;;;;8.10;2.50;;;12.90;85.40;;;;;;6164551;23;20434;-83
2022/05/28 04:23:10;;;;;;;7.23;2.47;;;12.90;86.10;;;;;;6167045;23;20446;-84
2022/05/28 04:25:36;;;;;;;6.20;2.60;;;13.00;85.70;;;;;;6170752;23;20414;-84
2022/05/28 04:28:03;;;;;;;8.37;3.30;;;12.90;87.20;;;;;;6171095;23;20404;-82
2022/05/28 04:30:30;;;;;;;9.93;3.57;;;13.00;87.70;;;;;;6164275;23;20419;-83
2022/05/28 04:32:58;;;;;;;6.97;2.83;;;13.00;87.10;;;;;;6163259;23;20419;-84
2022/05/28 04:35:25;;;;;;;8.93;3.20;;;13.00;87.30;;;;;;6164764;23;20412;-84
2022/05/28 04:37:51;;;;;;;4.97;2.50;;;13.00;86.90;;;;;;6161909;23;20895;-83
2022/05/28 04:40:18;;;;;;;6.57;2.63;;;13.00;88.00;;;;;;6160531;23;20436;-85
2022/05/28 04:42:45;;;;;;;6.87;4.17;;;13.00;87.60;;;;;;6160741;23;20449;-84
2022/05/28 04:45:12;;;;;;;6.93;2.60;;;13.00;88.30;;;;;;6160632;23;20874;-83
2022/05/28 04:47:39;;;;;;;8.77;2.60;;;13.00;87.60;;;;;;6160470;23;20411;-84
2022/05/28 04:50:09;;;;;;;11.93;2.50;;;13.00;86.70;;;;;;6161758;23;20495;-83
2022/05/28 04:52:37;;;;;;;7.30;1.97;;;13.10;86.00;;;;;;6162448;23;20410;-83
2022/05/28 04:55:04;;;;;;;6.70;2.60;;;13.10;86.40;;;;;;6166350;23;20442;-84
2022/05/28 04:57:30;;;;;;;5.63;2.33;;;13.10;86.00;;;;;;6179674;23;20411;-83
2022/05/28 04:59:57;;;;;;;6.27;2.20;;;13.10;86.00;;;;;;6178168;23;20428;-84
2022/05/28 05:02:24;;;;;;;11.10;3.47;;;13.10;85.00;;;;;;6176245;23;20450;-82
2022/05/28 05:04:55;;;;;;;7.40;2.40;;;13.10;84.70;;;;;;6176591;23;20443;-83
2022/05/28 05:07:23;;;;;;;6.43;3.10;;;13.20;84.80;;;;;;6170824;23;20399;-84
2022/05/28 05:09:50;;;;;;;8.37;2.30;;;13.30;84.60;;;;;;6164841;23;20425;-84
2022/05/28 05:12:16;;;;;;;8.30;2.37;;;13.50;85.20;;;;;;6163317;23;20798;-83
2022/05/28 05:14:43;;;;;;;7.53;2.43;;;13.80;83.50;;;;;;6163841;23;20741;-84
2022/05/28 05:17:10;;;;;;;6.20;2.97;;;14.20;82.30;;;;;;6163118;23;20406;-84
2022/05/28 05:19:37;;;;;;;7.97;3.00;;;14.70;80.30;;;;;;6163228;23;20437;-84
2022/05/28 05:22:04;;;;;;;6.17;2.63;;;15.10;78.60;;;;;;6163528;23;20481;-84
2022/05/28 05:24:33;;;;;;;6.00;2.43;;;15.20;77.80;;;;;;6161934;23;20403;-85
2022/05/28 05:27:00;;;;;;;5.93;2.63;;;15.50;77.50;;;;;;6162658;23;20449;-84
2022/05/28 05:29:27;;;;;;;6.33;2.67;;;15.80;76.90;;;;;;6162644;23;20458;-85
2022/05/28 05:31:54;;;;;;;8.13;3.70;;;16.10;75.70;;;;;;6163693;23;20383;-85
2022/05/28 05:34:20;;;;;;;9.70;2.80;;;16.70;75.30;;;;;;6164912;23;20410;-85
2022/05/28 05:36:47;;;;;;;10.13;2.83;;;17.10;72.50;;;;;;6164791;23;20426;-85
2022/05/28 05:39:14;;;;;;;7.93;2.80;;;17.40;71.00;;;;;;6162591;23;20434;-85
2022/05/28 05:41:43;;;;;;;16.27;3.17;;;17.60;70.30;;;;;;6163542;23;20445;-85
2022/05/28 05:44:11;;;;;;;8.60;2.47;;;18.00;67.60;;;;;;6167413;23;20400;-85
2022/05/28 05:46:39;;;;;;;9.97;3.40;;;18.50;66.20;;;;;;6164128;23;20419;-85
2022/05/28 05:49:07;;;;;;;8.20;3.57;;;18.90;63.80;;;;;;6162744;23;20448;-85
2022/05/28 05:51:35;;;;;;;6.33;3.03;;;19.20;63.20;;;;;;6163276;23;20427;-85
2022/05/28 05:54:02;;;;;;;6.37;2.20;;;19.60;61.60;;;;;;6163178;23;20407;-85
2022/05/28 05:56:29;;;;;;;5.50;2.80;;;20.20;60.10;;;;;;6162558;23;20407;-85
2022/05/28 05:58:57;;;;;;;6.80;2.63;;;20.60;58.90;;;;;;6161477;23;21066;-85
2022/05/28 06:01:25;;;;;;;10.73;3.40;;;20.60;58.40;;;;;;6161820;23;20399;-85
2022/05/28 06:03:52;;;;;;;7.63;2.90;;;20.90;57.70;;;;;;6162207;23;20423;-85
2022/05/28 06:06:19;;;;;;;6.00;2.33;;;21.10;56.50;;;;;;6163899;23;20409;-85
2022/05/28 06:08:47;;;;;;;6.83;2.87;;;21.50;55.70;;;;;;6161539;23;20425;-85
2022/05/28 06:11:14;;;;;;;6.33;2.60;;;21.80;54.50;;;;;;6161146;23;20722;-85
2022/05/28 06:13:40;;;;;;;4.43;2.30;;;22.00;53.20;;;;;;6161481;23;20406;-85
2022/05/28 06:16:09;;;;;;;6.53;2.77;;;22.50;52.90;;;;;;6161240;23;20399;-86
2022/05/28 06:18:35;;;;;;;4.83;2.20;;;22.90;51.70;;;;;;6160973;23;20419;-85
2022/05/28 06:21:03;;;;;;;8.43;2.40;;;23.10;50.30;;;;;;6159805;23;20414;-85
2022/05/28 06:23:30;;;;;;;6.73;2.43;;;23.10;50.60;;;;;;6161328;23;20446;-85
2022/05/28 06:25:57;;;;;;;5.83;2.63;;;23.10;49.30;;;;;;6176380;23;20561;-85
2022/05/28 06:28:24;;;;;;;10.27;2.67;;;23.40;48.40;;;;;;6177393;23;20407;-84
2022/05/28 06:30:51;;;;;;;9.03;3.03;;;23.70;47.80;;;;;;6169070;23;21046;-85
2022/05/28 06:33:20;;;;;;;6.30;2.00;;;23.70;47.60;;;;;;6163367;23;20419;-85
2022/05/28 06:35:46;;;;;;;4.90;1.87;;;23.90;48.10;;;;;;6162129;23;20473;-85
2022/05/28 06:38:13;;;;;;;6.53;2.60;;;24.30;46.40;;;;;;6161835;23;20406;-85
2022/05/28 06:40:40;;;;;;;4.83;2.07;;;23.90;46.00;;;;;;6162181;23;20996;-85
2022/05/28 06:43:07;;;;;;;7.80;2.20;;;24.20;46.10;;;;;;6162026;23;20458;-85
2022/05/28 06:45:34;;;;;;;5.60;2.20;;;24.30;45.40;;;;;;6161257;23;20411;-86
2022/05/28 06:48:00;;;;;;;10.93;2.37;;;24.60;44.50;;;;;;6175147;23;20403;-85
2022/05/28 06:53:13;;;;;;;6.47;2.33;;;25.10;43.90;;;;;;6185090;23;20396;-86
2022/05/28 06:55:40;;;;;;;6.77;1.70;;;25.60;43.20;;;;;;6171888;23;20417;-85
2022/05/28 06:58:08;;;;;;;5.30;2.50;;;25.90;43.20;;;;;;6170598;23;20398;-85
2022/05/28 07:00:35;;;;;;;5.87;2.67;;;26.00;42.10;;;;;;6181513;23;20449;-85
2022/05/28 07:03:02;;;;;;;6.00;2.13;;;26.40;42.50;;;;;;6166851;23;20447;-86
2022/05/28 07:05:30;;;;;;;6.50;2.57;;;26.80;41.20;;;;;;6163164;23;20418;-86
2022/05/28 07:07:57;;;;;;;4.80;2.03;;;26.90;41.80;;;;;;6162806;23;20413;-85
2022/05/28 07:10:24;;;;;;;4.77;1.63;;;26.60;40.40;;;;;;6162442;23;20437;-85
2022/05/28 07:12:51;;;;;;;6.40;2.00;;;26.50;40.60;;;;;;6163122;23;20835;-85
2022/05/28 07:15:18;;;;;;;4.80;1.93;;;26.70;40.10;;;;;;6163611;23;20402;-85
2022/05/28 07:17:44;;;;;;;4.83;2.10;;;26.70;40.10;;;;;;6162456;23;20414;-85
2022/05/28 07:20:12;;;;;;;4.87;1.73;;;26.90;40.10;;;;;;6161683;23;20454;-85
2022/05/28 07:22:40;;;;;;;4.27;2.07;;;27.10;39.50;;;;;;6161833;23;20454;-85
2022/05/28 07:25:08;;;;;;;5.13;1.77;;;27.20;38.60;;;;;;6161201;23;20406;-85
2022/05/28 07:27:35;;;;;;;5.37;1.90;;;27.80;38.60;;;;;;6161720;23;20424;-85
2022/05/28 07:30:02;;;;;;;4.77;2.23;;;27.80;37.70;;;;;;6162186;23;20426;-85
2022/05/28 07:32:30;;;;;;;4.17;1.27;;;27.80;38.00;;;;;;6161972;23;20403;-85
2022/05/28 07:34:57;;;;;;;3.83;1.97;;;28.00;37.30;;;;;;6165634;23;20411;-85
2022/05/28 07:37:24;;;;;;;4.60;1.90;;;28.40;36.70;;;;;;6161515;23;20893;-85
2022/05/28 07:39:52;;;;;;;5.60;2.47;;;28.80;36.50;;;;;;6162541;23;20427;-85
2022/05/28 07:42:18;;;;;;;2.53;1.63;;;28.20;36.10;;;;;;6170854;23;20431;-85
2022/05/28 07:44:45;;;;;;;6.80;1.90;;;28.30;36.90;;;;;;6182509;23;20403;-85
2022/05/28 07:47:12;;;;;;;4.10;1.67;;;28.30;36.60;;;;;;6181932;23;20409;-85
2022/05/28 07:49:40;;;;;;;5.47;1.57;;;28.40;36.50;;;;;;6181114;23;20407;-85
2022/05/28 07:52:10;;;;;;;6.07;1.80;;;28.70;35.90;;;;;;6176879;23;21076;-85
2022/05/28 07:54:36;;;;;;;4.13;2.03;;;29.50;35.90;;;;;;6162672;23;20411;-85
2022/05/28 07:57:05;;;;;;;3.83;1.87;;;29.30;35.00;;;;;;6170395;23;20411;-86
2022/05/28 07:59:32;;;;;;;7.53;1.87;;;29.00;34.90;;;;;;6174980;23;20440;-85
2022/05/28 08:01:59;;;;;;;3.30;1.40;;;29.10;34.50;;;;;;6167259;23;20415;-86
2022/05/28 08:04:26;;;;;;;4.50;2.10;;;29.30;33.50;;;;;;6158736;23;20406;-85
2022/05/28 08:06:52;;;;;;;4.67;1.50;;;28.30;33.90;;;;;;6159425;23;20470;-85
2022/05/28 08:09:19;;;;;;;3.87;1.40;;;28.70;34.30;;;;;;6159131;23;20427;-86
2022/05/28 08:11:46;;;;;;;5.03;2.03;;;28.30;34.20;;;;;;6158680;23;20395;-85
2022/05/28 08:14:14;;;;;;;4.23;1.70;;;27.80;34.50;;;;;;6159397;23;20415;-85
2022/05/28 08:16:41;;;;;;;4.93;2.33;;;26.90;35.80;;;;;;6159821;23;20732;-85
2022/05/28 08:19:08;;;;;;;3.57;1.20;;;26.30;36.40;;;;;;6160291;23;20429;-85
2022/05/28 08:24:19;;;;;;;2.73;1.43;;;26.10;37.70;;;;;;6157418;23;20464;-86
2022/05/28 08:26:45;;;;;;;5.20;1.87;;;27.10;37.20;;;;;;6157966;23;20393;-85
2022/05/28 08:29:13;;;;;;;5.03;2.07;;;27.50;36.80;;;;;;6159669;23;20448;-85
2022/05/28 08:31:40;;;;;;;7.57;1.70;;;28.00;36.80;;;;;;6175199;23;20430;-86
2022/05/28 08:34:07;;;;;;;5.20;2.23;;;28.60;36.60;;;;;;6169962;23;20399;-86
2022/05/28 08:36:33;;;;;;;4.47;1.60;;;29.10;36.40;;;;;;6157987;23;20913;-86
2022/05/28 08:39:00;;;;;;;2.97;1.67;;;29.90;34.90;;;;;;6160039;23;20423;-86
2022/05/28 08:41:32;;;;;;;5.27;2.27;;;30.90;34.50;;;;;;6172126;23;20414;-86
2022/05/28 08:44:03;;;;;;;5.33;2.30;;;30.60;33.80;;;;;;6171114;23;20438;-85
2022/05/28 08:46:36;;;;;;;4.83;2.27;;;30.10;34.60;;;;;;6177136;23;20418;-85
2022/05/28 08:49:07;;;;;;;5.73;1.50;;;29.70;34.80;;;;;;6174376;23;20426;-85
2022/05/28 08:51:37;;;;;;;4.27;1.83;;;28.80;35.40;;;;;;6174159;23;20395;-85
2022/05/28 08:54:08;;;;;;;5.67;1.93;;;28.90;36.00;;;;;;6162582;23;20395;-85
2022/05/28 08:56:36;;;;;;;5.67;2.20;;;29.30;35.90;;;;;;6167187;23;20463;-85
2022/05/28 08:59:07;;;;;;;5.07;1.50;;;30.50;35.10;;;;;;6161147;23;20434;-85
2022/05/28 09:01:39;;;;;;;4.53;1.73;;;31.10;33.90;;;;;;6158226;23;20729;-85
2022/05/28 09:04:11;;;;;;;3.43;1.70;;;32.60;33.30;;;;;;6157562;23;20434;-84
2022/05/28 09:06:41;;;;;;;5.57;1.80;;;32.80;32.00;;;;;;6157777;23;20395;-85
2022/05/28 09:09:14;;;;;;;3.17;1.60;;;32.70;31.50;;;;;;6158016;23;20427;-85
2022/05/28 09:11:44;;;;;;;3.00;1.70;;;32.10;31.80;;;;;;6157626;23;20505;-86
2022/05/28 09:14:23;;;;;;;3.90;1.53;;;30.00;33.50;;;;;;6156423;23;20384;-85
2022/05/28 09:16:53;;;;;;;2.53;1.40;;;28.10;36.20;;;;;;6156078;23;20843;-85
2022/05/28 09:19:26;;;;;;;5.30;2.20;;;26.80;36.90;;;;;;6156792;23;20761;-83
2022/05/28 09:21:53;;;;;;;4.43;2.23;;;25.60;38.00;;;;;;6156973;23;20403;-84
2022/05/28 09:24:22;;;;;;;3.67;1.63;;;26.40;38.20;;;;;;6157341;23;20448;-84
2022/05/28 09:26:58;;;;;;;3.97;1.67;;;28.00;37.00;;;;;;6176474;23;20407;-83
2022/05/28 09:29:37;;;;;;;3.20;1.40;;;28.30;34.90;;;;;;6165097;23;20486;-84
2022/05/28 09:32:12;;;;;;;3.43;1.40;;;28.40;35.30;;;;;;6157639;23;20398;-84
2022/05/28 09:34:50;;;;;;;3.73;2.03;;;27.90;35.20;;;;;;6156817;23;20387;-84
2022/05/28 09:37:26;;;;;;;3.93;1.80;;;27.60;36.60;;;;;;6157694;23;20885;-83
2022/05/28 09:40:00;;;;;;;3.70;1.67;;;28.70;35.60;;;;;;6156830;23;20756;-84
2022/05/28 09:42:39;;;;;;;3.90;1.93;;;29.70;34.80;;;;;;6156540;23;20398;-84
2022/05/28 09:45:13;;;;;;;4.30;1.40;;;29.50;34.70;;;;;;6156562;23;20755;-84
2022/05/28 09:47:47;;;;;;;4.47;1.67;;;30.40;33.40;;;;;;6155459;23;20466;-85
2022/05/28 09:50:21;;;;;;;2.77;1.47;;;29.90;33.60;;;;;;6156764;23;20513;-85
2022/05/28 09:55:55;;;;;;;3.80;1.70;;;28.80;34.60;;;;;;6159563;23;20442;-85
2022/05/28 09:58:24;;;;;;;3.00;1.70;;;28.10;35.70;;;;;;6158429;23;20393;-84
2022/05/28 10:00:51;;;;;;;3.53;2.03;;;27.50;36.60;;;;;;6156240;23;20500;-83
2022/05/28 10:06:16;;;;;;;3.50;1.70;;;25.90;38.20;;;;;;6161268;23;20382;-85
2022/05/28 10:08:43;;;;;;;7.00;2.20;;;26.00;38.20;;;;;;6158323;23;20485;-84
2022/05/28 10:11:17;;;;;;;4.37;1.80;;;26.90;37.70;;;;;;6157374;23;20900;-84
2022/05/28 10:13:46;;;;;;;4.90;1.90;;;27.60;36.20;;;;;;6157249;23;20470;-86
2022/05/28 10:16:17;;;;;;;2.80;1.93;;;27.90;35.30;;;;;;6155682;23;20413;-84
2022/05/28 10:18:53;;;;;;;2.93;1.63;;;28.50;35.10;;;;;;6156155;23;20776;-84
2022/05/28 10:21:27;;;;;;;4.33;1.67;;;28.90;34.70;;;;;;6162784;23;20395;-84
2022/05/28 10:23:58;;;;;;;6.90;2.00;;;29.10;33.50;;;;;;6175389;23;20431;-84
2022/05/28 10:26:29;;;;;;;4.87;1.97;;;29.10;33.90;;;;;;6160969;23;20465;-84
2022/05/28 10:28:59;;;;;;;5.80;1.60;;;28.30;35.20;;;;;;6159651;23;20477;-84
2022/05/28 10:31:30;;;;;;;3.97;1.57;;;27.30;36.30;;;;;;6158290;23;20398;-84
2022/05/28 10:36:28;;;;;;;2.73;1.50;;;25.30;39.00;;;;;;6169764;23;20437;-82
2022/05/28 10:39:05;;;;;;;3.57;1.40;;;24.40;40.40;;;;;;6160962;23;20398;-81
2022/05/28 10:41:35;;;;;;;3.90;1.60;;;23.80;41.20;;;;;;6170463;23;20383;-76
2022/05/28 10:44:02;;;;;;;6.20;2.13;;;23.40;41.40;;;;;;6170387;23;20437;-79
2022/05/28 10:46:40;;;;;;;7.37;1.97;;;23.50;41.10;;;;;;6160834;23;20405;-79
2022/05/28 10:49:19;;;;;;;4.70;2.23;;;23.70;41.20;;;;;;6158249;23;20401;-79
2022/05/28 10:51:56;;;;;;;3.60;1.63;;;24.40;40.00;;;;;;6158762;23;20394;-79
2022/05/28 10:54:40;;;;;;;3.63;2.03;;;24.60;39.70;;;;;;6157902;23;20425;-79
2022/05/28 10:57:25;;;;;;;3.53;1.43;;;24.70;39.60;;;;;;6158485;23;20419;-80
2022/05/28 11:00:03;;;;;;;3.80;1.97;;;25.40;38.50;;;;;;6158643;23;20391;-78
2022/05/28 11:02:59;;;;;;;3.70;1.37;;;26.60;38.00;;;;;;6159875;23;20396;-81
2022/05/28 11:05:48;;;;;;;4.57;1.70;;;27.60;34.90;;;;;;6162007;23;20424;-80
2022/05/28 11:08:24;;;;;;;3.83;1.37;;;28.10;32.50;;;;;;6165468;23;20390;-80
2022/05/28 11:11:09;;;;;;;2.73;1.30;;;28.20;32.40;;;;;;6171389;23;20386;-79
2022/05/28 11:13:50;;;;;;;3.57;1.63;;;28.40;32.50;;;;;;6168030;23;20517;-80
2022/05/28 11:16:34;;;;;;;4.87;2.10;;;28.60;32.40;;;;;;6163562;23;20917;-81
2022/05/28 11:19:18;;;;;;;3.90;1.67;;;29.20;31.80;;;;;;6162212;23;20445;-81
2022/05/28 11:22:00;;;;;;;4.97;1.80;;;28.70;32.20;;;;;;6163959;23;20716;-80
2022/05/28 11:24:51;;;;;;;4.90;1.40;;;28.40;32.70;;;;;;6163740;23;20454;-80
2022/05/28 11:27:30;;;;;;;5.87;2.60;;;27.70;33.10;;;;;;6164956;23;20430;-85
2022/05/28 11:30:05;;;;;;;3.00;1.50;;;27.20;34.30;;;;;;6166094;23;20392;-79
2022/05/28 11:32:35;;;;;;;4.80;1.70;;;26.30;35.50;;;;;;6163335;23;20390;-81
2022/05/28 11:35:07;;;;;;;4.17;1.50;;;26.50;35.80;;;;;;6164772;23;20458;-79
2022/05/28 11:37:39;;;;;;;5.10;1.80;;;27.90;34.90;;;;;;6162933;23;20405;-80
2022/05/28 11:40:15;;;;;;;4.30;1.60;;;28.50;33.70;;;;;;6159622;23;20395;-78
2022/05/28 11:42:47;;;;;;;4.23;1.40;;;28.70;33.90;;;;;;6159706;23;20405;-81
2022/05/28 11:45:18;;;;;;;5.23;2.03;;;29.40;33.00;;;;;;6160300;23;20824;-80
2022/05/28 11:47:52;;;;;;;4.30;1.50;;;29.30;31.90;;;;;;6161160;23;20388;-79
2022/05/28 11:53:17;;;;;;;3.37;1.53;;;30.10;31.60;;;;;;6164914;23;20399;-80
2022/05/28 11:55:46;;;;;;;4.67;1.33;;;31.00;30.50;;;;;;6161095;23;20418;-80
2022/05/28 11:58:16;;;;;;;2.70;1.60;;;31.50;30.00;;;;;;6160077;23;20411;-81
2022/05/28 12:00:50;;;;;;;2.30;1.67;;;31.90;29.80;;;;;;6162276;23;20405;-81
2022/05/28 12:03:19;;;;;;;5.53;1.60;;;31.60;29.90;;;;;;6167627;23;20383;-79
2022/05/28 12:05:50;;;;;;;4.33;1.73;;;31.20;30.00;;;;;;6168444;23;20426;-81
2022/05/28 12:08:27;;;;;;;4.73;1.70;;;30.60;30.90;;;;;;6166102;23;20398;-82
2022/05/28 12:11:00;;;;;;;5.30;2.23;;;30.10;31.10;;;;;;6162887;23;20731;-83
2022/05/28 12:13:34;;;;;;;3.50;1.93;;;30.60;31.50;;;;;;6164388;23;20446;-80
2022/05/28 12:16:08;;;;;;;5.80;1.80;;;30.90;30.70;;;;;;6161352;23;20434;-82
2022/05/28 12:18:35;;;;;;;4.37;1.47;;;29.20;31.40;;;;;;6161460;23;20706;-79
2022/05/28 12:21:04;;;;;;;6.80;1.80;;;27.80;33.00;;;;;;6159482;23;20459;-81
2022/05/28 12:23:35;;;;;;;6.30;1.90;;;27.10;34.50;;;;;;6158888;23;20404;-81
2022/05/28 12:26:15;;;;;;;3.13;1.30;;;26.70;34.90;;;;;;6162739;23;20423;-79
2022/05/28 12:28:48;;;;;;;5.20;2.40;;;26.30;35.60;;;;;;6165836;23;20401;-79
2022/05/28 12:31:25;;;;;;;6.03;1.80;;;26.50;36.10;;;;;;6169675;23;20450;-78
2022/05/28 12:33:54;;;;;;;6.40;2.67;;;27.60;35.00;;;;;;6164685;23;20402;-81
2022/05/28 12:36:28;;;;;;;5.13;1.53;;;28.30;34.20;;;;;;6159166;23;20914;-79
2022/05/28 12:39:02;;;;;;;3.17;1.30;;;28.50;33.70;;;;;;6159403;23;20387;-81
2022/05/28 12:41:32;;;;;;;2.70;2.03;;;29.80;32.70;;;;;;6159094;23;20396;-80
2022/05/28 12:44:03;;;;;;;3.50;1.53;;;29.90;31.30;;;;;;6166997;23;20438;-79
2022/05/28 12:46:40;;;;;;;4.37;1.37;;;30.00;32.10;;;;;;6176678;23;20391;-79
2022/05/28 12:49:10;;;;;;;5.00;1.70;;;29.50;31.20;;;;;;6167631;23;20402;-85
2022/05/28 12:52:00;;;;;;;2.93;1.60;;;29.20;32.10;;;;;;6161953;23;20402;-83
2022/05/28 12:54:28;;;;;;;3.27;1.83;;;27.70;32.60;;;;;;6162514;23;20441;-82
2022/05/28 12:57:08;;;;;;;4.37;2.13;;;26.90;33.90;;;;;;6170334;23;20387;-82
2022/05/28 12:59:38;;;;;;;6.57;1.80;;;26.10;35.30;;;;;;6160891;23;20736;-83
2022/05/28 13:02:18;;;;;;;4.40;2.23;;;26.10;36.00;;;;;;6159688;23;20402;-83
2022/05/28 13:04:49;;;;;;;6.80;1.93;;;26.40;35.90;;;;;;6159021;23;20933;-82
2022/05/28 13:07:23;;;;;;;5.47;1.87;;;26.90;34.80;;;;;;6158714;23;20391;-83
2022/05/28 13:10:00;;;;;;;4.53;2.00;;;28.20;33.40;;;;;;6158615;23;20827;-83
2022/05/28 13:12:34;;;;;;;5.20;1.50;;;29.70;32.10;;;;;;6158406;23;20394;-83
2022/05/28 13:15:28;;;;;;;11.00;2.53;;;31.10;30.40;;;;;;6158427;23;20734;-81
2022/05/28 13:18:14;;;;;;;3.10;1.73;;;31.80;30.00;;;;;;6161349;23;20388;-82